createdAt,value
2018-03-04T00:01:14.675Z,33.50
2018-03-04T00:02:53.121Z,37.50
2018-03-04T00:04:30.187Z,27.75
2018-03-04T00:06:07.896Z,26.00
2018-03-04T00:07:48.171Z,35.00
2018-03-04T00:09:26.056Z,37.25
2018-03-04T00:11:03.098Z,37.25
2018-03-04T00:12:41.224Z,33.00
2018-03-04T00:14:18.229Z,32.75
2018-03-04T00:15:56.069Z,37.00
2018-03-04T00:17:34.755Z,25.50
2018-03-04T00:19:12.209Z,29.50
2018-03-04T00:20:49.321Z,33.25
2018-03-04T00:22:39.193Z,33.00
2018-03-04T00:24:16.326Z,30.75
2018-03-04T00:25:54.272Z,27.00
2018-03-04T00:27:31.274Z,29.00
2018-03-04T00:29:09.129Z,38.25
2018-03-04T00:30:46.465Z,39.25
2018-03-04T00:32:24.211Z,34.50
2018-03-04T00:34:01.290Z,33.25
2018-03-04T00:35:39.198Z,25.25
2018-03-04T00:37:16.452Z,32.50
2018-03-04T00:38:54.285Z,44.25
2018-03-04T00:40:31.677Z,36.25
2018-03-04T00:42:09.114Z,29.25
2018-03-04T00:43:46.333Z,37.00
2018-03-04T00:45:26.779Z,26.25
2018-03-04T00:47:04.159Z,27.75
2018-03-04T00:48:43.187Z,26.50
2018-03-04T00:50:20.284Z,34.75
2018-03-04T00:51:58.151Z,38.00
2018-03-04T00:53:35.310Z,50.75
2018-03-04T00:55:12.624Z,29.25
2018-03-04T00:56:49.787Z,20.50
2018-03-04T00:58:27.546Z,34.50
2018-03-04T01:00:05.532Z,50.50
2018-03-04T01:01:43.412Z,29.75
2018-03-04T01:03:21.072Z,39.25
2018-03-04T01:04:59.556Z,38.00
2018-03-04T01:06:38.339Z,38.25
2018-03-04T01:08:15.875Z,35.50
2018-03-04T01:09:53.601Z,24.00
2018-03-04T01:11:31.853Z,47.50
2018-03-04T01:13:09.707Z,34.25
2018-03-04T01:14:47.270Z,30.00
2018-03-04T01:16:26.150Z,38.75
2018-03-04T01:18:03.989Z,53.25
2018-03-04T01:19:41.752Z,36.50
2018-03-04T01:21:19.041Z,36.00
2018-03-04T01:22:56.574Z,32.75
2018-03-04T01:24:34.424Z,37.50
2018-03-04T01:26:11.918Z,33.50
2018-03-04T01:27:49.659Z,27.25
2018-03-04T01:29:28.042Z,39.50
2018-03-04T01:31:06.783Z,43.25
2018-03-04T01:32:44.580Z,35.75
2018-03-04T01:34:22.380Z,40.00
2018-03-04T01:36:00.030Z,39.25
2018-03-04T01:37:39.334Z,28.00
2018-03-04T01:39:17.206Z,26.25
2018-03-04T01:40:55.325Z,19.25
2018-03-04T01:42:34.037Z,29.75
2018-03-04T01:44:12.850Z,47.00
2018-03-04T01:45:51.694Z,31.25
2018-03-04T01:47:29.489Z,22.00
2018-03-04T01:49:10.409Z,44.75
2018-03-04T01:50:48.940Z,46.25
2018-03-04T01:52:28.097Z,28.25
2018-03-04T01:54:08.868Z,54.75
2018-03-04T01:55:48.410Z,32.75
2018-03-04T01:57:28.913Z,36.50
2018-03-04T01:59:07.380Z,36.75
2018-03-04T02:00:45.338Z,30.75
2018-03-04T02:02:23.930Z,45.75
2018-03-04T02:04:02.111Z,37.75
2018-03-04T02:05:40.434Z,32.75
2018-03-04T02:07:18.811Z,35.00
2018-03-04T02:08:56.484Z,28.75
2018-03-04T02:10:34.492Z,24.00
2018-03-04T02:12:12.346Z,36.50
2018-03-04T02:13:50.082Z,60.25
2018-03-04T02:15:29.998Z,41.75
2018-03-04T02:17:09.348Z,35.25
2018-03-04T02:18:47.764Z,40.75
2018-03-04T02:20:25.344Z,20.25
2018-03-04T02:22:04.137Z,58.75
2018-03-04T02:23:42.493Z,36.75
2018-03-04T02:25:20.325Z,25.50
2018-03-04T02:26:57.781Z,33.50
2018-03-04T02:28:36.362Z,23.50
2018-03-04T02:30:15.796Z,32.50
2018-03-04T02:31:53.783Z,26.00
2018-03-04T02:33:32.050Z,25.75
2018-03-04T02:35:09.828Z,30.25
2018-03-04T02:36:48.856Z,39.25
2018-03-04T02:38:26.710Z,39.75
2018-03-04T02:40:05.318Z,36.00
2018-03-04T02:41:42.974Z,31.00
2018-03-04T02:43:21.260Z,22.50
2018-03-04T02:44:59.437Z,31.75
2018-03-04T02:46:37.460Z,33.25
2018-03-04T02:48:15.730Z,25.00
2018-03-04T02:49:53.753Z,46.75
2018-03-04T02:51:31.409Z,27.25
2018-03-04T02:53:10.492Z,38.75
2018-03-04T02:54:48.265Z,34.25
2018-03-04T02:56:27.607Z,30.75
2018-03-04T02:58:05.219Z,36.75
2018-03-04T02:59:43.896Z,32.25
2018-03-04T03:01:22.117Z,31.75
2018-03-04T03:03:00.220Z,27.50
2018-03-04T03:04:37.969Z,42.25
2018-03-04T03:06:15.752Z,43.50
2018-03-04T03:07:53.833Z,33.00
2018-03-04T03:09:31.908Z,30.25
2018-03-04T03:11:09.480Z,31.50
2018-03-04T03:12:47.231Z,36.75
2018-03-04T03:14:25.159Z,34.50
2018-03-04T03:16:03.221Z,46.75
2018-03-04T03:17:42.716Z,24.00
2018-03-04T03:19:20.148Z,31.75
2018-03-04T03:20:58.723Z,35.00
2018-03-04T03:22:35.905Z,31.00
2018-03-04T03:24:13.627Z,18.50
2018-03-04T03:25:51.600Z,26.25
2018-03-04T03:27:28.479Z,30.00
2018-03-04T03:29:06.056Z,32.75
2018-03-04T03:30:43.863Z,28.25
2018-03-04T03:32:21.444Z,43.00
2018-03-04T03:33:58.910Z,29.00
2018-03-04T03:35:37.124Z,29.50
2018-03-04T03:37:14.836Z,32.25
2018-03-04T03:38:52.937Z,36.00
2018-03-04T03:40:30.323Z,45.75
2018-03-04T03:42:08.155Z,25.00
2018-03-04T03:43:45.469Z,40.75
2018-03-04T03:45:24.583Z,24.00
2018-03-04T03:47:02.776Z,31.00
2018-03-04T03:48:41.840Z,36.00
2018-03-04T03:50:20.395Z,22.00
2018-03-04T03:51:57.937Z,30.00
2018-03-04T03:53:35.541Z,30.50
2018-03-04T03:55:13.215Z,39.25
2018-03-04T03:56:50.647Z,28.50
2018-03-04T03:58:28.750Z,30.25
2018-03-04T04:00:06.613Z,36.50
2018-03-04T04:01:44.511Z,33.25
2018-03-04T04:03:21.380Z,25.00
2018-03-04T04:04:58.798Z,24.75
2018-03-04T04:06:36.008Z,26.75
2018-03-04T04:08:14.579Z,30.00
2018-03-04T04:09:51.731Z,42.50
2018-03-04T04:11:29.001Z,25.75
2018-03-04T04:13:05.980Z,29.50
2018-03-04T04:14:44.701Z,46.25
2018-03-04T04:16:23.112Z,26.75
2018-03-04T04:17:59.963Z,19.00
2018-03-04T04:19:37.873Z,34.00
2018-03-04T04:21:15.001Z,25.25
2018-03-04T04:22:51.819Z,34.50
2018-03-04T04:24:28.587Z,37.00
2018-03-04T04:26:05.481Z,26.00
2018-03-04T04:27:42.681Z,36.75
2018-03-04T04:29:19.474Z,23.00
2018-03-04T04:30:56.288Z,29.75
2018-03-04T04:32:32.840Z,24.50
2018-03-04T04:34:10.486Z,19.00
2018-03-04T04:35:47.311Z,24.50
2018-03-04T04:37:23.894Z,20.50
2018-03-04T04:39:01.554Z,23.75
2018-03-04T04:40:38.945Z,34.50
2018-03-04T04:42:15.686Z,29.50
2018-03-04T04:43:52.367Z,25.50
2018-03-04T04:45:30.142Z,18.50
2018-03-04T04:47:07.442Z,25.50
2018-03-04T04:48:45.071Z,36.75
2018-03-04T04:50:21.979Z,21.00
2018-03-04T04:51:59.691Z,16.00
2018-03-04T04:53:37.732Z,34.75
2018-03-04T04:55:21.612Z,28.00
2018-03-04T04:56:58.442Z,32.00
2018-03-04T04:58:35.849Z,30.00
2018-03-04T05:00:14.883Z,41.25
2018-03-04T05:01:52.422Z,16.75
2018-03-04T05:03:30.209Z,23.50
2018-03-04T05:05:07.494Z,28.00
2018-03-04T05:06:47.304Z,25.25
2018-03-04T05:08:24.106Z,35.50
2018-03-04T05:10:01.049Z,30.75
2018-03-04T05:11:37.687Z,20.00
2018-03-04T05:13:15.176Z,35.25
2018-03-04T05:14:52.192Z,21.00
2018-03-04T05:16:29.591Z,41.25
2018-03-04T05:18:06.498Z,22.00
2018-03-04T05:19:45.451Z,23.00
2018-03-04T05:21:22.138Z,43.75
2018-03-04T05:22:58.935Z,32.25
2018-03-04T05:24:35.785Z,21.75
2018-03-04T05:26:13.817Z,30.50
2018-03-04T05:27:50.733Z,34.75
2018-03-04T05:29:27.189Z,40.00
2018-03-04T05:31:04.128Z,27.25
2018-03-04T05:32:42.435Z,39.50
2018-03-04T05:34:19.284Z,28.25
2018-03-04T05:35:56.204Z,22.50
2018-03-04T05:37:33.006Z,24.25
2018-03-04T05:39:10.290Z,17.75
2018-03-04T05:40:47.450Z,21.75
2018-03-04T05:42:24.521Z,32.25
2018-03-04T05:44:02.582Z,34.25
2018-03-04T05:45:41.046Z,36.75
2018-03-04T05:47:18.363Z,26.00
2018-03-04T05:48:55.952Z,31.00
2018-03-04T05:50:33.126Z,22.75
2018-03-04T05:52:10.650Z,33.75
2018-03-04T05:53:47.204Z,33.75
2018-03-04T05:55:23.864Z,31.50
2018-03-04T05:57:00.781Z,22.75
2018-03-04T05:58:38.428Z,39.50
2018-03-04T06:00:16.875Z,35.25
2018-03-04T06:01:54.029Z,26.25
2018-03-04T06:03:31.269Z,27.75
2018-03-04T06:05:09.314Z,33.50
2018-03-04T06:06:46.292Z,24.25
2018-03-04T06:08:24.061Z,35.50
2018-03-04T06:10:01.113Z,34.75
2018-03-04T06:11:39.072Z,22.50
2018-03-04T06:13:17.063Z,35.75
2018-03-04T06:14:54.347Z,23.25
2018-03-04T06:16:32.504Z,13.50
2018-03-04T06:18:11.091Z,30.00
2018-03-04T06:19:48.478Z,28.75
2018-03-04T06:21:26.157Z,34.75
2018-03-04T06:23:04.908Z,14.50
2018-03-04T06:24:43.242Z,24.75
2018-03-04T06:26:22.225Z,29.75
2018-03-04T06:28:00.100Z,43.75
2018-03-04T06:29:37.644Z,27.00
2018-03-04T06:31:18.164Z,29.75
2018-03-04T06:32:56.574Z,22.50
2018-03-04T06:34:34.319Z,30.00
2018-03-04T06:36:12.353Z,24.50
2018-03-04T06:37:50.844Z,26.00
2018-03-04T06:39:28.928Z,31.00
2018-03-04T06:41:06.528Z,50.75
2018-03-04T06:42:44.396Z,29.25
2018-03-04T06:44:22.581Z,25.00
2018-03-04T06:46:01.116Z,34.00
2018-03-04T06:47:40.523Z,33.50
2018-03-04T06:49:18.286Z,25.00
2018-03-04T06:50:57.357Z,31.75
2018-03-04T06:52:35.216Z,21.75
2018-03-04T06:54:12.981Z,30.75
2018-03-04T06:55:50.508Z,22.25
2018-03-04T06:57:28.819Z,13.00
2018-03-04T06:59:06.438Z,18.00
2018-03-04T07:00:44.428Z,36.25
2018-03-04T07:02:22.986Z,31.75
2018-03-04T07:04:00.790Z,24.75
2018-03-04T07:05:38.543Z,35.50
2018-03-04T07:07:16.160Z,30.50
2018-03-04T07:08:54.053Z,29.25
2018-03-04T07:10:32.529Z,35.00
2018-03-04T07:12:10.219Z,12.75
2018-03-04T07:13:47.710Z,33.25
2018-03-04T07:15:27.306Z,30.00
2018-03-04T07:17:06.191Z,24.75
2018-03-04T07:18:43.930Z,43.25
2018-03-04T07:20:21.491Z,20.50
2018-03-04T07:21:59.687Z,25.25
2018-03-04T07:23:37.532Z,23.50
2018-03-04T07:25:15.196Z,31.00
2018-03-04T07:26:52.678Z,37.00
2018-03-04T07:28:30.267Z,21.75
2018-03-04T07:30:08.857Z,23.25
2018-03-04T07:31:46.488Z,20.25
2018-03-04T07:33:23.804Z,23.50
2018-03-04T07:35:01.525Z,26.25
2018-03-04T07:36:39.191Z,22.25
2018-03-04T07:38:16.458Z,38.75
2018-03-04T07:39:53.879Z,23.25
2018-03-04T07:41:30.928Z,22.50
2018-03-04T07:43:08.736Z,28.75
2018-03-04T07:44:46.819Z,19.75
2018-03-04T07:46:24.767Z,19.50
2018-03-04T07:48:02.636Z,25.25
2018-03-04T07:49:39.884Z,22.25
2018-03-04T07:51:19.133Z,35.50
2018-03-04T07:52:56.719Z,22.00
2018-03-04T07:54:34.034Z,27.75
2018-03-04T07:56:11.585Z,19.25
2018-03-04T07:57:48.919Z,24.50
2018-03-04T07:59:26.644Z,21.75
2018-03-04T08:01:04.674Z,24.50
2018-03-04T08:02:42.047Z,20.25
2018-03-04T08:04:20.084Z,22.25
2018-03-04T08:05:57.575Z,27.00
2018-03-04T08:07:35.788Z,29.50
2018-03-04T08:09:13.760Z,24.00
2018-03-04T08:10:51.658Z,33.75
2018-03-04T08:12:33.076Z,21.25
2018-03-04T08:14:12.011Z,47.75
2018-03-04T08:15:50.972Z,21.75
2018-03-04T08:17:28.144Z,30.25
2018-03-04T08:19:05.518Z,13.75
2018-03-04T08:22:15.241Z,21.00
2018-03-04T08:24:04.612Z,27.75
2018-03-04T08:25:42.085Z,24.75
2018-03-04T08:28:35.687Z,42.75
2018-03-04T08:30:12.783Z,20.50
2018-03-04T08:31:52.634Z,29.50
2018-03-04T08:33:30.385Z,23.50
2018-03-04T08:35:07.589Z,33.00
2018-03-04T08:36:44.728Z,32.75
2018-03-04T08:38:22.413Z,21.50
2018-03-04T08:40:00.139Z,13.50
2018-03-04T08:41:38.320Z,26.25
2018-03-04T08:43:16.671Z,24.25
2018-03-04T08:44:53.879Z,25.50
2018-03-04T08:46:32.657Z,22.00
2018-03-04T08:48:10.245Z,44.00
2018-03-04T08:49:47.500Z,19.00
2018-03-04T08:51:24.919Z,19.25
2018-03-04T08:53:02.702Z,23.50
2018-03-04T08:54:42.180Z,25.50
2018-03-04T08:56:52.764Z,18.00
2018-03-04T08:58:30.452Z,28.00
2018-03-04T09:00:08.985Z,42.75
2018-03-04T09:01:46.298Z,20.25
2018-03-04T09:03:23.437Z,28.50
2018-03-04T09:05:01.117Z,14.75
2018-03-04T09:06:38.388Z,26.25
2018-03-04T09:08:15.728Z,15.25
2018-03-04T09:09:52.952Z,18.50
2018-03-04T09:11:31.481Z,22.25
2018-03-04T09:13:08.702Z,37.25
2018-03-04T09:14:46.525Z,23.00
2018-03-04T09:16:24.850Z,15.00
2018-03-04T09:18:02.715Z,22.00
2018-03-04T09:19:41.415Z,26.50
2018-03-04T09:21:18.889Z,24.75
2018-03-04T09:22:56.171Z,15.00
2018-03-04T09:24:33.863Z,15.25
2018-03-04T09:26:11.917Z,24.25
2018-03-04T09:27:49.666Z,21.00
2018-03-04T09:29:27.041Z,30.00
2018-03-04T09:31:05.515Z,36.75
2018-03-04T09:32:43.245Z,24.25
2018-03-04T09:34:21.273Z,21.25
2018-03-04T09:35:58.752Z,27.75
2018-03-04T09:37:36.376Z,26.00
2018-03-04T09:39:13.323Z,24.00
2018-03-04T09:40:50.409Z,19.50
2018-03-04T09:42:27.643Z,13.25
2018-03-04T09:44:06.213Z,25.00
2018-03-04T09:45:43.571Z,21.00
2018-03-04T09:47:22.094Z,15.50
2018-03-04T09:48:59.156Z,19.25
2018-03-04T09:50:36.808Z,31.00
2018-03-04T09:52:13.884Z,34.50
2018-03-04T09:53:51.826Z,21.75
2018-03-04T09:55:29.094Z,20.25
2018-03-04T09:57:07.126Z,21.25
2018-03-04T09:58:44.383Z,19.00
2018-03-04T10:00:21.886Z,14.75
2018-03-04T10:01:59.144Z,38.50
2018-03-04T10:03:36.446Z,20.25
2018-03-04T10:05:14.393Z,17.75
2018-03-04T10:06:51.477Z,21.00
2018-03-04T10:08:29.574Z,25.50
2018-03-04T10:10:07.357Z,37.50
2018-03-04T10:11:44.498Z,14.00
2018-03-04T10:13:22.427Z,16.75
2018-03-04T10:14:59.389Z,11.25
2018-03-04T10:16:36.612Z,17.75
2018-03-04T10:18:13.596Z,26.75
2018-03-04T10:19:51.433Z,31.75
2018-03-04T10:21:29.285Z,19.00
2018-03-04T10:23:07.119Z,30.50
2018-03-04T10:24:44.305Z,25.25
2018-03-04T10:26:22.119Z,20.75
2018-03-04T10:27:59.169Z,30.50
2018-03-04T10:29:37.561Z,22.50
2018-03-04T10:31:15.112Z,17.25
2018-03-04T10:32:52.253Z,13.50
2018-03-04T10:34:31.047Z,13.25
2018-03-04T10:36:09.672Z,26.00
2018-03-04T10:37:47.796Z,13.00
2018-03-04T10:39:26.704Z,14.50
2018-03-04T10:41:04.475Z,16.75
2018-03-04T10:42:41.857Z,20.50
2018-03-04T10:44:18.807Z,25.25
2018-03-04T10:45:56.306Z,15.00
2018-03-04T10:47:33.807Z,25.50
2018-03-04T10:49:12.306Z,16.25
2018-03-04T10:50:50.011Z,15.00
2018-03-04T10:52:27.469Z,13.75
2018-03-04T10:54:04.634Z,26.25
2018-03-04T10:55:42.245Z,21.25
2018-03-04T10:57:19.309Z,20.50
2018-03-04T10:58:57.107Z,20.25
2018-03-04T11:00:38.324Z,26.75
2018-03-04T11:02:18.503Z,23.75
2018-03-04T11:03:55.629Z,30.00
2018-03-04T11:05:34.144Z,30.50
2018-03-04T11:07:11.960Z,30.25
2018-03-04T11:08:49.501Z,27.75
2018-03-04T11:10:27.842Z,20.00
2018-03-04T11:12:04.857Z,21.50
2018-03-04T11:13:42.588Z,13.00
2018-03-04T11:15:25.131Z,15.25
2018-03-04T11:17:04.290Z,24.75
2018-03-04T11:18:41.803Z,22.25
2018-03-04T11:20:19.352Z,11.75
2018-03-04T11:21:56.556Z,10.00
2018-03-04T11:23:33.832Z,18.25
2018-03-04T11:25:11.190Z,23.75
2018-03-04T11:26:48.611Z,21.75
2018-03-04T11:28:25.766Z,13.00
2018-03-04T11:30:02.886Z,26.50
2018-03-04T11:31:40.040Z,21.50
2018-03-04T11:33:17.616Z,17.25
2018-03-04T11:34:56.481Z,23.50
2018-03-04T11:36:38.230Z,10.00
2018-03-04T11:38:16.257Z,24.50
2018-03-04T11:39:53.916Z,25.25
2018-03-04T11:41:31.424Z,24.75
2018-03-04T11:43:09.358Z,29.25
2018-03-04T11:44:47.059Z,22.00
2018-03-04T11:46:26.772Z,25.50
2018-03-04T11:48:06.046Z,19.50
2018-03-04T11:49:44.709Z,16.00
2018-03-04T11:51:22.414Z,12.50
2018-03-04T11:52:59.570Z,28.00
2018-03-04T11:54:36.669Z,17.00
2018-03-04T11:56:14.684Z,16.50
2018-03-04T11:57:51.940Z,20.75
2018-03-04T11:59:31.301Z,12.75
2018-03-04T12:01:09.459Z,10.25
2018-03-04T12:02:47.786Z,14.50
2018-03-04T12:04:24.883Z,24.75
2018-03-04T12:06:03.544Z,30.50
2018-03-04T12:07:40.764Z,14.50
2018-03-04T12:09:18.257Z,19.00
2018-03-04T12:10:55.306Z,20.75
2018-03-04T12:12:33.202Z,25.50
2018-03-04T12:14:10.957Z,13.00
2018-03-04T12:15:49.183Z,23.00
2018-03-04T12:17:26.237Z,17.75
2018-03-04T12:19:03.721Z,14.00
2018-03-04T12:20:41.051Z,18.50
2018-03-04T12:22:18.602Z,16.50
2018-03-04T12:23:55.783Z,15.25
2018-03-04T12:25:33.595Z,21.25
2018-03-04T12:27:10.757Z,24.75
2018-03-04T12:28:48.727Z,26.00
2018-03-04T12:30:29.287Z,25.00
2018-03-04T12:32:08.255Z,23.50
2018-03-04T12:33:46.974Z,19.00
2018-03-04T12:35:27.649Z,13.50
2018-03-04T12:37:05.235Z,16.00
2018-03-04T12:38:43.582Z,21.50
2018-03-04T12:40:22.417Z,14.50
2018-03-04T12:42:00.172Z,25.50
2018-03-04T12:43:38.063Z,20.00
2018-03-04T12:45:17.975Z,16.50
2018-03-04T12:46:58.741Z,25.00
2018-03-04T12:48:36.637Z,27.00
2018-03-04T12:50:16.657Z,22.75
2018-03-04T12:51:54.348Z,14.75
2018-03-04T12:53:31.813Z,15.50
2018-03-04T12:55:09.402Z,13.75
2018-03-04T12:56:46.840Z,10.75
2018-03-04T12:58:25.186Z,15.25
2018-03-04T13:00:04.031Z,9.75
2018-03-04T13:01:45.676Z,13.00
2018-03-04T13:03:24.213Z,12.00
2018-03-04T13:05:02.826Z,11.50
2018-03-04T13:06:40.168Z,12.25
2018-03-04T13:08:17.512Z,18.25
2018-03-04T13:09:56.353Z,14.50
2018-03-04T13:11:36.203Z,12.00
2018-03-04T13:13:13.542Z,16.00
2018-03-04T13:14:50.932Z,15.00
2018-03-04T13:16:29.089Z,16.50
2018-03-04T13:18:07.238Z,14.00
2018-03-04T13:19:44.977Z,15.50
2018-03-04T13:21:22.574Z,12.50
2018-03-04T13:23:01.069Z,19.00
2018-03-04T13:24:39.036Z,9.00
2018-03-04T13:26:16.363Z,10.50
2018-03-04T13:27:53.564Z,18.25
2018-03-04T13:29:32.549Z,24.75
2018-03-04T13:31:10.708Z,15.25
2018-03-04T13:32:48.146Z,19.25
2018-03-04T13:34:25.829Z,12.25
2018-03-04T13:36:04.121Z,11.00
2018-03-04T13:37:42.510Z,13.00
2018-03-04T13:39:20.346Z,17.50
2018-03-04T13:40:58.215Z,14.50
2018-03-04T13:42:35.964Z,9.00
2018-03-04T13:44:13.957Z,11.00
2018-03-04T13:45:55.985Z,10.50
2018-03-04T13:47:33.758Z,14.50
2018-03-04T13:49:16.785Z,17.50
2018-03-04T13:50:55.351Z,18.75
2018-03-04T13:52:33.021Z,13.25
2018-03-04T13:54:10.712Z,9.25
2018-03-04T13:55:49.141Z,14.00
2018-03-04T13:57:27.765Z,10.75
2018-03-04T13:59:05.120Z,9.75
2018-03-04T14:00:42.451Z,17.25
2018-03-04T14:02:20.063Z,15.25
2018-03-04T14:03:57.171Z,14.75
2018-03-04T14:05:34.419Z,10.25
2018-03-04T14:07:13.912Z,10.75
2018-03-04T14:08:52.926Z,9.00
2018-03-04T14:10:30.665Z,10.75
2018-03-04T14:12:07.840Z,19.50
2018-03-04T14:13:45.903Z,14.00
2018-03-04T14:15:26.131Z,4.75
2018-03-04T14:17:03.352Z,19.50
2018-03-04T14:18:40.574Z,12.75
2018-03-04T14:20:20.294Z,12.00
2018-03-04T14:21:58.623Z,6.50
2018-03-04T14:23:36.047Z,11.00
2018-03-04T14:25:14.214Z,14.25
2018-03-04T14:26:51.853Z,12.25
2018-03-04T14:28:29.969Z,14.25
2018-03-04T14:30:07.215Z,6.75
2018-03-04T14:31:46.015Z,7.25
2018-03-04T14:33:23.192Z,9.00
2018-03-04T14:35:02.922Z,9.00
2018-03-04T14:36:42.201Z,8.50
2018-03-04T14:38:19.588Z,15.25
2018-03-04T14:39:57.007Z,14.75
2018-03-04T14:41:34.909Z,10.75
2018-03-04T14:43:12.453Z,16.25
2018-03-04T14:44:49.698Z,14.25
2018-03-04T14:46:27.738Z,14.25
2018-03-04T14:48:05.574Z,13.25
2018-03-04T14:49:47.168Z,14.50
2018-03-04T14:51:25.089Z,13.00
2018-03-04T14:53:02.884Z,13.00
2018-03-04T14:54:41.606Z,8.75
2018-03-04T14:56:18.911Z,12.75
2018-03-04T14:57:56.093Z,11.50
2018-03-04T14:59:33.314Z,11.50
2018-03-04T15:01:12.635Z,6.25
2018-03-04T15:02:51.725Z,8.00
2018-03-04T15:04:29.493Z,8.50
2018-03-04T15:06:09.163Z,6.50
2018-03-04T15:07:48.015Z,6.50
2018-03-04T15:09:26.353Z,10.00
2018-03-04T15:11:04.913Z,10.50
2018-03-04T15:12:42.345Z,6.25
2018-03-04T15:14:20.035Z,4.75
2018-03-04T15:15:58.051Z,9.75
2018-03-04T15:17:37.326Z,5.25
2018-03-04T15:19:16.055Z,6.00
2018-03-04T15:20:54.667Z,5.50
2018-03-04T15:22:33.160Z,5.75
2018-03-04T15:24:11.129Z,8.00
2018-03-04T15:25:51.727Z,6.75
2018-03-04T15:27:32.369Z,7.00
2018-03-04T15:29:13.063Z,5.25
2018-03-04T15:30:53.157Z,10.00
2018-03-04T15:32:32.594Z,10.00
2018-03-04T15:34:12.366Z,8.75
2018-03-04T15:35:52.559Z,9.25
2018-03-04T15:37:31.695Z,4.00
2018-03-04T15:39:12.167Z,4.50
2018-03-04T15:40:53.134Z,10.00
2018-03-04T15:42:33.335Z,10.25
2018-03-04T15:44:12.784Z,9.75
2018-03-04T15:45:52.637Z,7.00
2018-03-04T15:47:32.422Z,7.00
2018-03-04T15:49:11.800Z,10.00
2018-03-04T15:50:50.313Z,7.25
2018-03-04T15:52:29.859Z,13.75
2018-03-04T15:54:08.465Z,5.25
2018-03-04T15:55:45.958Z,10.25
2018-03-04T15:57:23.859Z,7.75
2018-03-04T16:02:49.410Z,10.25
2018-03-04T16:04:27.852Z,6.25
2018-03-04T16:06:08.124Z,7.00
2018-03-04T16:07:45.814Z,8.75
2018-03-04T16:09:25.432Z,8.75
2018-03-04T16:11:04.931Z,6.00
2018-03-04T16:12:45.660Z,9.25
2018-03-04T16:14:26.995Z,6.75
2018-03-04T16:16:06.718Z,7.75
2018-03-04T16:17:49.685Z,9.50
2018-03-04T16:19:31.080Z,5.75
2018-03-04T16:21:12.587Z,6.50
2018-03-04T16:22:52.000Z,8.00
2018-03-04T16:24:33.107Z,7.75
2018-03-04T16:26:13.300Z,7.50
2018-03-04T16:27:54.351Z,10.50
2018-03-04T16:29:33.938Z,6.25
2018-03-04T16:31:14.218Z,9.25
2018-03-04T16:32:55.523Z,7.50
2018-03-04T16:34:36.847Z,8.00
2018-03-04T16:37:43.742Z,9.75
2018-03-04T16:39:24.639Z,5.25
2018-03-04T16:41:05.029Z,6.25
2018-03-04T16:42:45.590Z,7.00
2018-03-04T16:44:26.014Z,6.00
2018-03-04T16:46:11.649Z,9.00
2018-03-04T16:47:51.873Z,7.50
2018-03-04T16:49:31.698Z,5.00
2018-03-04T16:51:12.846Z,9.50
2018-03-04T16:52:53.825Z,6.50
2018-03-04T16:54:36.581Z,10.00
2018-03-04T16:56:17.147Z,9.25
2018-03-04T16:57:56.861Z,6.00
2018-03-04T16:59:35.663Z,7.75
2018-03-04T17:01:14.882Z,6.00
2018-03-04T17:02:54.476Z,10.75
2018-03-04T17:04:34.781Z,7.75
2018-03-04T17:06:16.841Z,7.00
2018-03-04T17:07:58.628Z,9.00
2018-03-04T17:09:39.916Z,4.75
2018-03-04T17:11:17.792Z,17.00
2018-03-04T17:12:58.080Z,16.25
2018-03-04T17:14:37.489Z,12.75
2018-03-04T17:16:20.007Z,11.50
2018-03-04T17:18:02.298Z,7.00
2018-03-04T17:19:41.911Z,6.75
2018-03-04T17:21:22.355Z,6.00
2018-03-04T17:23:06.066Z,14.25
2018-03-04T17:24:50.146Z,17.00
2018-03-04T17:26:32.426Z,18.50
2018-03-04T17:28:13.302Z,20.25
2018-03-04T17:29:54.927Z,20.50
2018-03-04T17:31:34.335Z,17.00
2018-03-04T17:33:13.618Z,15.25
2018-03-04T17:34:55.074Z,23.25
2018-03-04T17:36:35.328Z,20.00
2018-03-04T17:38:14.860Z,21.50
2018-03-04T17:39:54.944Z,6.25
2018-03-04T17:41:35.726Z,13.25
2018-03-04T17:43:19.520Z,14.00
2018-03-04T17:45:03.472Z,10.25
2018-03-04T17:46:43.454Z,17.50
2018-03-04T17:48:21.913Z,15.00
2018-03-04T17:50:03.056Z,16.75
2018-03-04T17:51:43.894Z,16.75
2018-03-04T17:53:27.310Z,11.00
2018-03-04T17:55:07.425Z,10.50
2018-03-04T17:56:46.270Z,13.50
2018-03-04T17:58:25.203Z,9.25
2018-03-04T18:00:08.613Z,11.00
2018-03-04T18:01:48.094Z,13.00
2018-03-04T18:03:28.108Z,13.50
2018-03-04T18:05:08.105Z,12.25
2018-03-04T18:06:48.007Z,13.00
2018-03-04T18:08:29.158Z,9.50
2018-03-04T18:10:06.893Z,11.75
2018-03-04T18:11:47.061Z,18.00
2018-03-04T18:13:28.116Z,28.50
2018-03-04T18:15:09.006Z,28.50
2018-03-04T18:16:57.762Z,11.75
2018-03-04T18:18:39.059Z,11.25
2018-03-04T18:20:18.435Z,9.00
2018-03-04T18:21:57.438Z,15.25
2018-03-04T18:23:35.285Z,16.75
2018-03-04T18:25:16.186Z,14.25
2018-03-04T18:26:58.008Z,4.75
2018-03-04T18:28:42.895Z,13.00
2018-03-04T18:30:23.066Z,17.75
2018-03-04T18:32:03.215Z,23.75
2018-03-04T18:33:42.926Z,18.75
2018-03-04T18:35:22.551Z,19.75
2018-03-04T18:37:02.065Z,20.50
2018-03-04T18:38:44.044Z,16.75
2018-03-04T18:40:26.862Z,14.50
2018-03-04T18:42:09.197Z,13.00
2018-03-04T18:43:50.557Z,10.00
2018-03-04T18:45:35.613Z,7.50
2018-03-04T18:47:23.542Z,8.25
2018-03-04T18:49:06.112Z,12.50
2018-03-04T18:50:48.832Z,11.75
2018-03-04T18:52:28.476Z,14.75
2018-03-04T18:54:09.117Z,15.25
2018-03-04T18:55:51.421Z,5.25
2018-03-04T18:57:32.676Z,12.75
2018-03-04T18:59:13.584Z,16.25
2018-03-04T19:00:57.962Z,13.75
2018-03-04T19:02:41.416Z,16.25
2018-03-04T19:04:22.477Z,12.50
2018-03-04T19:06:03.970Z,17.25
2018-03-04T19:07:50.398Z,10.25
2018-03-04T19:09:32.657Z,19.00
2018-03-04T19:11:18.530Z,13.25
2018-03-04T19:12:58.991Z,13.75
2018-03-04T19:14:36.697Z,14.75
2018-03-04T19:16:15.396Z,27.00
2018-03-04T19:17:56.780Z,22.50
2018-03-04T19:19:36.665Z,22.25
2018-03-04T19:21:20.290Z,22.50
2018-03-04T19:23:01.102Z,22.75
2018-03-04T19:24:40.693Z,17.50
2018-03-04T19:26:24.223Z,18.75
2018-03-04T19:28:03.671Z,20.00
2018-03-04T19:29:44.557Z,42.25
2018-03-04T19:31:27.315Z,19.50
2018-03-04T19:33:07.957Z,20.75
2018-03-04T19:34:47.642Z,24.00
2018-03-04T19:36:27.802Z,30.25
2018-03-04T19:38:09.753Z,19.50
2018-03-04T19:39:50.241Z,19.00
2018-03-04T19:41:32.875Z,18.00
2018-03-04T19:43:15.395Z,20.50
2018-03-04T19:44:55.386Z,19.50
2018-03-04T19:46:37.381Z,17.50
2018-03-04T19:48:18.082Z,27.75
2018-03-04T19:49:58.036Z,20.75
2018-03-04T19:51:44.660Z,28.25
2018-03-04T19:53:26.488Z,16.25
2018-03-04T19:55:09.169Z,20.75
2018-03-04T19:56:49.868Z,10.75
2018-03-04T19:58:30.596Z,15.75
2018-03-04T20:00:15.381Z,23.25
2018-03-04T20:01:54.367Z,18.25
2018-03-04T20:03:34.809Z,30.25
2018-03-04T20:05:15.011Z,23.25
2018-03-04T20:06:55.653Z,23.50
2018-03-04T20:08:36.054Z,21.75
2018-03-04T20:10:21.145Z,15.50
2018-03-04T20:12:03.877Z,19.25
2018-03-04T20:13:58.289Z,19.25
2018-03-04T20:17:15.489Z,21.25
2018-03-04T20:18:55.962Z,19.00
2018-03-04T20:20:38.004Z,25.75
2018-03-04T20:22:22.706Z,33.25
2018-03-04T20:24:03.489Z,31.00
2018-03-04T20:25:46.804Z,34.75
2018-03-04T20:27:27.796Z,34.00
2018-03-04T20:29:08.593Z,33.75
2018-03-04T20:30:48.499Z,36.75
2018-03-04T20:32:31.556Z,36.75
2018-03-04T20:34:15.390Z,36.00
2018-03-04T20:35:57.976Z,35.25
2018-03-04T20:37:43.723Z,36.00
2018-03-04T20:39:24.755Z,36.00
2018-03-04T20:41:05.039Z,31.00
2018-03-04T20:42:52.584Z,31.00
2018-03-04T20:44:33.144Z,35.50
2018-03-04T20:46:12.857Z,36.25
2018-03-04T20:48:00.366Z,32.75
2018-03-04T20:51:44.550Z,31.50
2018-03-04T20:53:24.537Z,36.00
2018-03-04T20:55:04.639Z,34.00
2018-03-04T20:56:46.901Z,33.00
2018-03-04T20:58:27.045Z,34.50
2018-03-04T21:00:05.774Z,33.25
2018-03-04T21:01:44.692Z,33.25
2018-03-04T21:03:24.054Z,34.00
2018-03-04T21:05:03.094Z,35.75
2018-03-04T21:06:41.454Z,30.00
2018-03-04T21:08:21.055Z,30.75
2018-03-04T21:09:59.809Z,36.75
2018-03-04T21:11:39.058Z,35.00
2018-03-04T21:13:19.757Z,32.75
2018-03-04T21:14:57.994Z,34.00
2018-03-04T21:16:36.774Z,12.75
2018-03-04T21:18:16.435Z,36.75
2018-03-04T21:19:55.502Z,36.00
2018-03-04T21:21:33.366Z,39.00
2018-03-04T21:23:13.584Z,37.50
2018-03-04T21:24:51.712Z,38.00
2018-03-04T21:26:29.230Z,34.00
2018-03-04T21:28:06.695Z,38.75
2018-03-04T21:29:45.551Z,36.50